Pagrindinis puslapis
METAR-TAF:

METAR-TAF

Oro uostai :

Miunsteris-Osnabriukas, Vokietija

platuma: 52-08N, ilguma: 007-42E, Aukštis: 48 m

Dabartinis oras

Ataskaita buvo paskelbta 34 minutes, ne 07:20 UTC
Vėjas 4 kt iš Pietryčių, svyruoja nuo Rytų ir Pietų
Temperatūra 24°C
Drėgmė 61%
Slėgis 1011 hPa
Matomumas 10 km arba daugiau
nėra debesų žemiau 1500 m ir nėra kamuolinių lietaus debesų

METAR: EDDG 200720Z AUTO 14004KT 080V180 CAVOK 24/16 Q1011 NOSIG

Laikas: 09:54 (07:54 UTC)

Prognozė

Ataskaita buvo paskelbta 2 valandos ir 54 minutes, ne 05:00 UTC
Prognozė galioja nuo 20 metu 06 UTC su 21 metu 06 UTC
Vėjas 3 kt nuo kintamojo kryptimis
Matomumas 10 km arba daugiau
nėra debesų žemiau 1500 m ir nėra kamuolinių lietaus debesų
Tapsmas
nuo 20 metu 08 UTC su 20 metu 11 UTC
Vėjas 5 kt iš Pietų/Pietryčių
Tapsmas
nuo 20 metu 17 UTC su 20 metu 20 UTC
Vėjas 3 kt nuo kintamojo kryptimis

TAF: EDDG 200500Z 2006/2106 VRB03KT CAVOK BECMG 2008/2011 16005KT BECMG 2017/2020 VRB03KT

Orai ataskaitas ir orų prognozės (METAR, TAF).

turimą stotys yra geltonos ir raudonos taškus žemėlapyje.

Perkelti pele per norėdami pamatyti stoties vardą.

Tada spustelėkite, norėdami matyti oro stebėjimo ir prognozės.

Norėdami pakeisti žemėlapį: spustelėkite ant žalios mygtukų su juodo kryžiaus žemyn,; žalią mygtuką su brūkšneliu, jei norite nutolinti; arba žalių rodyklių gretimoms žemėlapius.


METAR-TAF: